x

Long Key, Fl (lonf1) Weather Station

5:00pm - Sat 6th Feb 2016 All times are CST. -5 hours from GMT.

  • Wind
    9mph, 10mph gusts
  • Sea Temp 72°f
  • Air Temp 74°f
  • Sea Pressure 1017mb
  • Long Key, Fl
  • Long Key, Fl

More Historic Weather Station data

Upgrade to MSW Pro to gain access to the past 30 days of data for over 8000 Wavebouys and Weather Stations around the globe.

Join Pro

Comparision Forecast

View Surf forecast
   
Sat 02/06 5:00pm 9 10 mph 1017mb 72f 74f
4:00pm 13 15 mph 1017mb 72f 74f
3:00pm 7 10 mph 1017.4mb 72f 74f
2:00pm 11 13 mph 1017.9mb 71f 74f
1:00pm 8 13 mph 1019mb 71f 74f
12:00pm 7 11 mph 1019.9mb 70f 71f
11:00am 10 13 mph 1020.8mb 70f 69f
10:00am 13 15 mph 1021.3mb 70f 67f
9:00am 14 16 mph 1020.7mb 70f 66f
8:00am 14 16 mph 1020.3mb 70f 65f
7:00am 16 18 mph 1019.6mb 70f 66f
6:00am 15 17 mph 1018.5mb 70f 65f
5:00am 16 20 mph 1018.9mb 70f 64f
4:00am 16 17 mph 1018.7mb 70f 65f
3:00am 17 18 mph 1018.5mb 70f 64f
2:00am 17 20 mph 1020mb 70f 64f
1:00am 17 21 mph 1020.5mb 71f 65f
12:00am 15 17 mph 1021mb 71f 67f
Fri 02/05 11:00pm 20 22 mph 1021.4mb 71f 67f
10:00pm 20 22 mph 1021.3mb 71f 67f
9:00pm 23 25 mph 1021.3mb 71f 66f
8:00pm 23 25 mph 1021.2mb 71f 66f
7:00pm 24 26 mph 1020.9mb 72f 66f
6:00pm 24 28 mph 1020.7mb 72f 65f
5:00pm 24 28 mph 1020.4mb 72f 65f
4:00pm 21 23 mph 1020.1mb 72f 64f
3:00pm 20 22 mph 1020.1mb 73f 64f
2:00pm 21 25 mph 1020.4mb 73f 63f
1:00pm 26 30 mph 1021mb 73f 64f
12:00pm 28 32 mph 1021.9mb 73f 64f
11:00am 30 34 mph 1022.4mb 73f 63f
10:00am 25 28 mph 1022.6mb 73f 63f
9:00am 24 28 mph 1022.2mb 73f 62f
8:00am 25 30 mph 1021.2mb 73f 63f
7:00am 25 29 mph 1020.2mb 73f 65f
6:00am 23 26 mph 1019.2mb 74f 65f
5:00am 22 24 mph 1017.9mb 74f 69f
4:00am 21 22 mph 1018.2mb 74f 67f
3:00am 25 28 mph 1018.1mb 75f 68f
2:00am 10 11 mph 1017.8mb 75f 76f
1:00am 10 11 mph 1018.1mb 76f 76f
12:00am 10 11 mph 1018.5mb 76f 76f
Thu 02/04 11:00pm 11 13 mph 1018.7mb 75f 76f
10:00pm 10 11 mph 1018.5mb 75f 76f
9:00pm 8 9 mph 1018.3mb 76f 76f
8:00pm 6 7 mph 1018.3mb 76f 76f
7:00pm 8
mph
1017.9mb 76f 76f
6:00pm 10 13 mph 1017.5mb 76f 76f
5:00pm 11 13 mph 1017.1mb 76f 77f
4:00pm 13 16 mph 1016.6mb 76f 77f
3:00pm 14 17 mph 1016.7mb 76f 77f
2:00pm 17 20 mph 1017.1mb 75f 77f
1:00pm 16 17 mph 1018mb 75f 77f
12:00pm 17 20 mph 1019mb 75f 77f
11:00am 15 17 mph 1019.8mb 74f 77f
10:00am 15 17 mph 1019.9mb 74f 77f
9:00am 13 15 mph 1019.4mb 74f 77f
8:00am 14 15 mph 1018.9mb 74f 76f
7:00am 14 15 mph 1018.6mb 74f 76f
6:00am 15 16 mph 1017.9mb 74f 76f
5:00am 15
mph
1017.6mb 74f 75f
4:00am 14 15 mph 1017.7mb 73f 76f
3:00am 15 16 mph 1018.1mb 73f 76f
2:00am 15 17 mph 1018.4mb 74f 76f
1:00am 18 20 mph 1018.2mb 74f 76f
12:00am 20 23 mph 1018.6mb 74f 76f
Wed 02/03 11:00pm 17 20 mph 1019mb 74f 76f
10:00pm 17 20 mph 1019.1mb 74f 76f
9:00pm 15 17 mph 1018.9mb 74f 76f
8:00pm 11 13 mph 1018.9mb 75f 76f
7:00pm 14 16 mph 1018.3mb 75f 77f
6:00pm 15 17 mph 1017.8mb 75f 77f
5:00pm 17 20 mph 1017mb 74f 77f
4:00pm 18 22 mph 1017mb 74f 77f
3:00pm 18 21 mph 1017.2mb 74f 77f
2:00pm 17 22 mph 1017.8mb 74f 77f
1:00pm 14 16 mph 1018.8mb 74f 77f
12:00pm 17 20 mph 1019.5mb 73f 77f
11:00am 16 18 mph 1020.3mb 73f 77f
10:00am 14 16 mph 1020.1mb 73f 77f
9:00am 14 15 mph 1019.7mb 73f 77f
8:00am 15 16 mph 1019.3mb 73f 76f
7:00am 17 21 mph 1018.5mb 73f 76f
6:00am 15 17 mph 1017.9mb 72f 76f
5:00am 16 20 mph 1017.1mb 72f 75f
4:00am 20 22 mph 1017mb 72f 76f
3:00am 16 17 mph 1017.2mb 72f 75f
2:00am 16 18 mph 1018.1mb 72f 76f
1:00am 18 21 mph 1018.3mb 72f 76f
12:00am 16 20 mph 1018.7mb 73f 76f